Tiempo atmosférico en la estación meteorológica de Almonte, Huelva (5 m.)



Fecha
DESCASC
Temp. máxima en grados centígrados (hora)
DESCASC
Temp. mínima en grados centígrados (hora)
DESCASC
Temp. media en grados centígrados
DESCASC
Racha de viento máxima en m/sg (hora)
DESCASC
Velocidad máxima media en intervalos de 10 minutos(hora)
DESCASC
Precipitaciones diarias en mm
DESCASC
Precipitaciones de 00:00 a 06:00 en mm
DESCASC
Precipitaciones de 06:00 a 12:00 en mm
DESCASC
Precipitaciones de 12:00 a 18:00 en mm
DESCASC
Precipitaciones de 18:00 a 24:00 en mm
DESCASC
01-01-2021 14.4 (15:10) 5.5 (00:00) 9.9 8.89 (00:10) 5 (15:10) 0.8 0.8 0 0 0
15-01-2021 14.2 (15:40) -1.5 (-00:0) 6.3 5 (15:30) 3.61 (15:30) 0 0 0 0 0
14-01-2021 13.5 (16:20) -2 (08:00) 5.8 4.17 (16:50) 2.78 (16:40) 0 0 0 0 0
13-01-2021 14.2 (16:10) -1.8 (-00:0) 6.2 5.28 (16:20) 3.61 (16:40) 0 0 0 0 0
12-01-2021 12.1 (16:20) -0.2 (00:00) 6 6.11 (12:10) 4.44 (12:10) 0 0 0 0 0
11-01-2021 12.8 (17:30) 1.2 (00:00) 7 5.28 (12:40) 3.33 (12:30) 0 0 0 0 0
09-01-2021 12.4 (16:10) 2.3 (00:00) 7.3 9.17 (12:40) 5.56 (12:40) 0 0 0 0 0
08-01-2021 9 (17:00) 6.2 (00:00) 7.6 11.94 (13:20) 7.78 (12:30) 32.4 4.2 11.4 16.8 0
05-01-2021 11.7 (15:50) 2.1 (00:00) 6.9 5.56 (21:20) 3.89 (16:20) 0.2 0 0.2 0 0
04-01-2021 14.2 (16:20) -2.5 (-00:0) 5.8 6.39 (15:20) 4.17 (16:40) 0 0 0 0 0
03-01-2021 13.4 (14:20) -2.5 (-00:0) 5.4 6.67 (16:00) 5 (16:00) 0 0 0 0 0
02-01-2021 13.6 (15:10) 1.4 (00:00) 7.5 6.39 (15:00) 3.61 (14:40) 0 0 0 0 0
17-12-2020 16.7 (15:30) 7.6 (00:00) 12.2 5.28 (15:50) 2.5 (11:50) 1.8 1.8 0 0 0
30-12-2020 13.9 (16:20) -0.8 (-00:0) 6.5 5.83 (01:40) 3.61 (16:20) 0 0 0 0 0
29-12-2020 16.5 (16:20) 1.5 (00:00) 9 9.72 (15:00) 6.94 (15:00) 0 0 0 0 0
28-12-2020 15.3 (10:20) 4.7 (00:00) 10 13.61 (10:40) 8.89 (10:40) 0.4 0 0.4 0 0
27-12-2020 15.6 (15:50) 1 (00:00) 8.3 6.11 (10:50) 4.17 (10:50) 0 0 0 0 0
26-12-2020 12.7 (15:00) 2.3 (00:00) 7.5 15.28 (10:50) 10.56 (11:00) 0 0 0 0 0
25-12-2020 16.5 (15:20) 6.9 (00:00) 11.7 12.78 (14:00) 8.61 (14:10) 0 0 0 0 0
18-12-2020 18.4 (16:30) 6.5 (00:00) 12.4 4.17 (12:10) 2.22 (12:40) 0 0 0 0 0
20-12-2020 18.4 (15:40) 7.7 (00:00) 13 5.83 (01:30) 3.61 (01:30) 0 0 0 0 0
24-12-2020 18.9 (16:30) 7 (00:00) 12.9 3.33 (15:00) 1.94 (23:59) 0 0 0 0 0
23-12-2020 19.8 (14:30) 8.8 (00:00) 14.3 5.28 (13:50) 3.89 (13:50) 0 0 0 0 0
21-12-2020 17.4 (15:50) 6.6 (00:00) 12 6.94 (12:50) 4.44 (11:50) 0 0 0 0 0
22-12-2020 20.7 (16:50) 7.3 (00:00) 14 4.72 (08:40) 3.61 (03:50) 0 0 0 0 0
31-12-2020 14.5 (16:40) -1.3 (-00:0) 6.6 8.06 (23:50) 5.28 (15:50) 0.2 0 0 0 0.2
10-01-2021 8.9 (15:30) 0.9 (08:30) 4.9 5.28 (11:50) 3.61 (14:00) 0.2 0 0 0 0.2
19-12-2020 15.2 (15:20) 7.7 (00:00) 11.4 11.39 (22:00) 7.22 (21:40) 4.2 0.2 0.4 1.6 2
06-01-2021 11.2 (15:20) 1.5 (00:00) 6.3 9.72 (22:40) 6.67 (22:40) 8.6 0 0 0 8.6
07-01-2021 9.2 (14:30) 7 (00:00) 8.1 11.39 (01:40) 7.5 (01:50) 11.4 1.4 1.2 0 8.8

Gráficas

Temp. máximas Temp. mínimas Temp. medias Precipitaciones Rachas de viento máximas Velocidades máximas media en intervalos de 10 minutos

Datos horarios

Fecha y hora oficial Temperatura (ºC) Velocidad del viento (km/h) Dirección del viento Racha (km/h) Dirección de racha Precipitación (mm) Presión (hPa) Tendencia (hPa) Humedad (%)
2021-01-15 23:00:00 5.1 6 Noroeste 10 Noroeste 0 -- -- 88
2021-01-15 22:00:00 6 6 Oeste 13 Oeste 0 -- -- 92
2021-01-15 21:00:00 5.5 7 Oeste 10 Oeste 0 -- -- 89
2021-01-15 20:00:00 6.7 5 Oeste 10 Oeste 0 -- -- 89
2021-01-15 19:00:00 9.2 4 Sudoeste 10 Oeste 0 -- -- 76
2021-01-15 18:00:00 12 9 Oeste 16 Oeste 0 -- -- 69
2021-01-15 17:00:00 13.8 10 Oeste 18 Sudoeste 0 -- -- 64
2021-01-15 16:00:00 14 12 Sudoeste 18 Sudoeste 0 -- -- 63
2021-01-15 15:00:00 12.7 4 Este 12 Nordeste 0 -- -- 63
2021-01-15 14:00:00 11.2 5 Este 12 Este 0 -- -- 67
2021-01-15 13:00:00 10 5 Este 12 Este 0 -- -- 73
2021-01-15 12:00:00 7.4 6 Este 13 Nordeste 0 -- -- 85
2021-01-15 11:00:00 4.3 7 Nordeste 10 Nordeste 0 -- -- 97
2021-01-15 10:00:00 0.6 5 Nordeste 8 Nordeste 0 -- -- 99
2021-01-15 09:00:00 -1.4 0 Calma 8 Noroeste 0 -- -- 96
2021-01-15 08:00:00 0.4 5 Norte 8 Norte 0 -- -- 97
2021-01-15 07:00:00 0.6 2 Norte 8 Norte 0 -- -- 97
2021-01-15 06:00:00 1.2 4 Noroeste 8 Norte 0 -- -- 96
2021-01-15 05:00:00 0.4 4 Nordeste 8 Norte 0 -- -- 96
2021-01-15 04:00:00 1.6 4 Norte 9 Norte 0 -- -- 96
2021-01-15 03:00:00 1.1 0 Calma 7 Norte 0 -- -- 95
2021-01-15 02:00:00 2.1 0 Calma 11 Nordeste 0 -- -- 95
2021-01-15 01:00:00 3 4 Norte 10 Norte 0 -- -- 95
2021-01-15 00:00:00 3.2 3 Norte 9 Noroeste 0 -- -- 94
2021-01-14 23:00:00 2.7 4 Norte 9 Noroeste 0 -- -- 93
2021-01-14 22:00:00 3.5 6 Noroeste 8 Oeste 0 -- -- 92
2021-01-14 21:00:00 4.2 2 Oeste 5 Oeste 0 -- -- 87
2021-01-14 20:00:00 6.6 3 Oeste 10 Oeste 0 -- -- 81
2021-01-14 19:00:00 9.1 6 Oeste 11 Oeste 0 -- -- 77
2021-01-14 18:00:00 12.1 5 Oeste 13 Sudoeste 0 -- -- 68
2021-01-14 17:00:00 13.3 9 Sudoeste 15 Sudoeste 0 -- -- 63
2021-01-14 16:00:00 13.3 7 Sur 12 Sudoeste 0 -- -- 63
2021-01-14 15:00:00 12.2 0 Calma 10 Este 0 -- -- 68
2021-01-14 14:00:00 10.6 4 Este 10 Este 0 -- -- 70
2021-01-14 13:00:00 8.5 5 Nordeste 10 Nordeste 0 -- -- 76
2021-01-14 12:00:00 6.1 5 Nordeste 12 Nordeste 0 -- -- 84
2021-01-14 11:00:00 4.3 8 Nordeste 12 Norte 0 -- -- 92
2021-01-14 10:00:00 0.5 3 Noroeste 8 Norte 0 -- -- 97
2021-01-14 09:00:00 -1.4 5 Norte 8 Norte 0 -- -- 95
2021-01-14 08:00:00 -2 0 Calma 5 Noroeste 0 -- -- 94
2021-01-14 07:00:00 -0.9 4 Noroeste 9 Norte 0 -- -- 93
2021-01-14 06:00:00 -0.6 3 Norte 6 Nordeste 0 -- -- 94
2021-01-14 05:00:00 -0.3 3 Norte 8 Noroeste 0 -- -- 93
2021-01-14 04:00:00 -0.1 5 Noroeste 8 Oeste 0 -- -- 93
2021-01-14 03:00:00 0.8 4 Noroeste 6 Noroeste 0 -- -- 89
2021-01-14 02:00:00 2.3 3 Norte 6 Norte 0 -- -- 91
2021-01-14 01:00:00 3.7 5 Noroeste 9 Oeste 0 -- -- 84
2021-01-14 00:00:00 3.3 6 Oeste 11 Oeste 0 -- -- 93
2021-01-13 23:00:00 3.6 8 Oeste 12 Oeste 0 -- -- 91
2021-01-13 22:00:00 3.5 7 Oeste 12 Oeste 0 -- -- 89
2021-01-13 21:00:00 4.1 9 Oeste 11 Oeste 0 -- -- 83
2021-01-13 20:00:00 5.6 5 Oeste 9 Oeste 0 -- -- 79
2021-01-13 19:00:00 7.8 6 Oeste 10 Oeste 0 -- -- 71
2021-01-13 18:00:00 12.1 8 Oeste 16 Oeste 0 -- -- 59
2021-01-13 17:00:00 13.5 12 Oeste 19 Sudoeste 0 -- -- 50
2021-01-13 16:00:00 14 10 Oeste 15 Sudoeste 0 -- -- 49
2021-01-13 15:00:00 12.1 4 Nordeste 10 Este 0 -- -- 50
2021-01-13 14:00:00 10.7 5 Este 16 Nordeste 0 -- -- 56
2021-01-13 13:00:00 9.1 8 Nordeste 15 Nordeste 0 -- -- 59
2021-01-13 12:00:00 7.5 9 Nordeste 16 Nordeste 0 -- -- 66
2021-01-13 11:00:00 4.7 9 Nordeste 14 Norte 0 -- -- 80
2021-01-13 10:00:00 1.9 6 Nordeste 12 Nordeste 0 -- -- 88
2021-01-13 09:00:00 0 3 Norte 12 Norte 0 -- -- 86
2021-01-13 08:00:00 -0.5 7 Norte 12 Norte 0 -- -- 89
2021-01-13 07:00:00 -0.8 4 Norte 7 Norte 0 -- -- 97
2021-01-13 06:00:00 -1.8 2 Norte 4 Norte 0 -- -- 94
2021-01-13 05:00:00 -1.5 0 Calma 6 Nordeste 0 -- -- 93
2021-01-13 04:00:00 -1.5 3 Nordeste 5 Nordeste 0 -- -- 90
2021-01-13 03:00:00 0.5 0 Calma 10 Nordeste 0 -- -- 88
2021-01-13 02:00:00 1.4 5 Nordeste 9 Nordeste 0 -- -- 88
2021-01-13 01:00:00 1.9 3 Norte 8 Norte 0 -- -- 87
2021-01-13 00:00:00 2.8 3 Norte 7 Norte 0 -- -- 84
2021-01-12 23:00:00 3.6 5 Norte 11 Noroeste 0 -- -- 83
2021-01-12 22:00:00 3.7 6 Norte 12 Norte 0 -- -- 86
2021-01-12 21:00:00 2.3 3 Noroeste 4 Norte 0 -- -- 89
2021-01-12 20:00:00 6.1 0 Calma 4 Nordeste 0 -- -- 76
2021-01-12 19:00:00 8.3 0 Calma 11 Nordeste 0 -- -- 73
2021-01-12 18:00:00 10.7 6 Nordeste 13 Nordeste 0 -- -- 62
2021-01-12 17:00:00 12 7 Nordeste 17 Nordeste 0 -- -- 55
2021-01-12 16:00:00 12 9 Nordeste 17 Nordeste 0 -- -- 58
2021-01-12 15:00:00 11.2 10 Nordeste 18 Nordeste 0 -- -- 63
2021-01-12 14:00:00 10.1 13 Nordeste 21 Nordeste 0 -- -- 67
2021-01-12 13:00:00 8.4 14 Nordeste 22 Nordeste 0 -- -- 70
2021-01-12 12:00:00 6.6 16 Nordeste 22 Nordeste 0 -- -- 73
2021-01-12 11:00:00 4.4 16 Nordeste 22 Nordeste 0 -- -- 80
2021-01-12 10:00:00 2 11 Nordeste 16 Nordeste 0 -- -- 88
2021-01-12 09:00:00 -0.1 7 Nordeste 10 Nordeste 0 -- -- 92
2021-01-12 08:00:00 0.4 8 Nordeste 14 Nordeste 0 -- -- 93
2021-01-12 07:00:00 0.3 8 Nordeste 12 Nordeste 0 -- -- 93
2021-01-12 06:00:00 0.7 5 Nordeste 8 Nordeste 0 -- -- 92
2021-01-12 05:00:00 1.1 5 Nordeste 8 Nordeste 0 -- -- 91
2021-01-12 04:00:00 1.8 3 Nordeste 9 Nordeste 0 -- -- 89
2021-01-12 03:00:00 2.4 5 Nordeste 11 Nordeste 0 -- -- 89
2021-01-12 02:00:00 2.9 9 Nordeste 12 Norte 0 -- -- 90
2021-01-12 01:00:00 3.1 3 Norte 10 Nordeste 0 -- -- 84
2021-01-12 00:00:00 3.6 3 Norte 10 Norte 0 -- -- 92
2021-01-11 23:00:00 3.7 3 Norte 12 Norte 0 -- -- 93
2021-01-11 22:00:00 2.8 0 Calma 3 Sudoeste 0 -- -- 91
2021-01-11 21:00:00 4 3 Sudoeste 5 Sudoeste 0 -- -- 87
2021-01-11 20:00:00 6.1 3 Sudoeste 4 Sudoeste 0 -- -- 81
2021-01-11 19:00:00 9 4 Sudoeste 8 Sudoeste 0 -- -- 72
2021-01-11 18:00:00 11.8 6 Sudoeste 14 Sudoeste 0 -- -- 64
2021-01-11 17:00:00 12.1 8 Nordeste 18 Nordeste 0 -- -- 60
2021-01-11 16:00:00 12.3 7 Nordeste 17 Nordeste 0 -- -- 58
2021-01-11 15:00:00 11.6 9 Nordeste 17 Nordeste 0 -- -- 63
2021-01-11 14:00:00 10.7 7 Norte 19 Nordeste 0 -- -- 62
2021-01-11 13:00:00 10 9 Nordeste 19 Este 0 -- -- 68
2021-01-11 12:00:00 7.9 11 Nordeste 19 Nordeste 0 -- -- 76
2021-01-11 11:00:00 5.7 10 Nordeste 15 Nordeste 0 -- -- 84
2021-01-11 10:00:00 2.9 3 Norte 9 Norte 0 -- -- 93
2021-01-11 09:00:00 1.2 5 Norte 10 Norte 0 -- -- 92
2021-01-11 08:00:00 2 3 Norte 9 Norte 0 -- -- 91
2021-01-11 07:00:00 2.4 2 Norte 12 Nordeste 0 -- -- 92
2021-01-11 06:00:00 2.7 8 Nordeste 14 Norte 0 -- -- 92
2021-01-11 05:00:00 2.4 2 Norte 4 Nordeste 0 -- -- 92
2021-01-11 04:00:00 3.4 0 Calma 10 Noroeste 0 -- -- 92
2021-01-11 03:00:00 3.7 5 Noroeste 10 Noroeste 0 -- -- 92
2021-01-11 02:00:00 4 6 Noroeste 12 Norte 0 -- -- 91
2021-01-11 01:00:00 5.1 2 Norte 11 Noroeste 0 -- -- 91
2021-01-11 00:00:00 5.3 5 Norte 11 Norte 0 -- -- 89
2021-01-10 23:00:00 5.2 3 Noroeste 5 Noroeste 0 -- -- 90
2021-01-10 22:00:00 5.6 4 Noroeste 9 Norte 0.2 -- -- 90
2021-01-10 21:00:00 5.5 3 Noroeste 9 Noroeste 0 -- -- 89
2021-01-10 20:00:00 5.5 5 Noroeste 9 Noroeste 0 -- -- 87
2021-01-10 19:00:00 6.6 4 Noroeste 6 Noroeste 0 -- -- 83
2021-01-10 18:00:00 7.4 3 Noroeste 10 Nordeste 0 -- -- 80
2021-01-10 17:00:00 7.9 4 Norte 14 Nordeste 0 -- -- 76
2021-01-10 16:00:00 7.8 8 Nordeste 17 Nordeste 0 -- -- 74
2021-01-10 15:00:00 8 10 Nordeste 19 Nordeste 0 -- -- 76
2021-01-10 14:00:00 6.6 13 Nordeste 18 Nordeste 0 -- -- 81
2021-01-10 13:00:00 5.7 9 Nordeste 18 Nordeste 0 -- -- 86
2021-01-10 12:00:00 4.9 10 Nordeste 19 Nordeste 0 -- -- 92
2021-01-10 11:00:00 4 8 Nordeste 13 Nordeste 0 -- -- 94
2021-01-10 10:00:00 3.2 4 Nordeste 8 Nordeste 0 -- -- 96
2021-01-10 09:00:00 1.2 4 Nordeste 6 Nordeste 0 -- -- 94
2021-01-10 08:00:00 1.5 2 Noroeste 8 Norte 0 -- -- 91
2021-01-10 07:00:00 3 4 Norte 10 Noroeste 0 -- -- 92
2021-01-10 06:00:00 3.3 0 Calma 10 Noroeste 0 -- -- 92
2021-01-10 05:00:00 3.2 6 Noroeste 10 Noroeste 0 -- -- 91
2021-01-10 04:00:00 3.2 6 Noroeste 13 Oeste 0 -- -- 89
2021-01-10 03:00:00 3 6 Noroeste 13 Noroeste 0 -- -- 90
2021-01-10 02:00:00 2.6 7 Noroeste 14 Noroeste 0 -- -- 88
2021-01-10 01:00:00 3.3 6 Oeste 17 Noroeste 0 -- -- 87
2021-01-10 00:00:00 3.3 6 Noroeste 19 Noroeste 0 -- -- 87
2021-01-09 23:00:00 3.5 7 Oeste 12 Noroeste 0 -- -- 82
2021-01-09 22:00:00 5.4 5 Noroeste 14 Noroeste 0 -- -- 76
2021-01-09 21:00:00 5 8 Noroeste 12 Noroeste 0 -- -- 79
2021-01-09 20:00:00 5.2 4 Noroeste 10 Noroeste 0 -- -- 73
2021-01-09 19:00:00 7.8 4 Noroeste 9 Noroeste 0 -- -- 67
2021-01-09 18:00:00 10.2 4 Noroeste 14 Oeste 0 -- -- 58
2021-01-09 17:00:00 11.2 13 Oeste 23 Sudoeste 0 -- -- 50
2021-01-09 16:00:00 12.3 14 Oeste 21 Oeste 0 -- -- 54
2021-01-09 15:00:00 11.7 13 Oeste 28 Oeste 0 -- -- 53
2021-01-09 14:00:00 11.1 15 Oeste 27 Sudoeste 0 -- -- 57
2021-01-09 13:00:00 9.6 17 Oeste 33 Oeste 0 -- -- 55
2021-01-09 12:00:00 9.1 13 Oeste 24 Oeste 0 -- -- 69
2021-01-09 11:00:00 7 12 Oeste 20 Oeste 0 -- -- 76
2021-01-09 10:00:00 3.9 8 Oeste 14 Oeste 0 -- -- 82
2021-01-09 09:00:00 2.5 7 Noroeste 13 Noroeste 0 -- -- 87
2021-01-09 08:00:00 4 9 Noroeste 20 Oeste 0 -- -- 86
2021-01-09 07:00:00 5 11 Oeste 22 Oeste 0 -- -- 85
2021-01-09 06:00:00 5.3 14 Oeste 26 Oeste 0 -- -- 83
2021-01-09 05:00:00 5.6 12 Oeste 25 Oeste 0 -- -- 83
2021-01-09 04:00:00 5.4 10 Oeste 23 Oeste 0 -- -- 91
2021-01-09 03:00:00 4.6 15 Oeste 21 Sudoeste 0 -- -- 94
2021-01-09 02:00:00 5.3 14 Oeste 23 Oeste 0 -- -- 93
2021-01-09 01:00:00 6.2 12 Oeste 18 Oeste 0 -- -- 96
2021-01-09 00:00:00 6.2 8 Oeste 16 Noroeste 0 -- -- 96
2021-01-08 23:00:00 6.9 9 Oeste 19 Oeste 0 -- -- 97
2021-01-08 22:00:00 7.5 11 Oeste 23 Oeste 0 -- -- 98
2021-01-08 21:00:00 8.5 8 Noroeste 15 Noroeste 0 -- -- 99
2021-01-08 20:00:00 8.4 7 Noroeste 22 Norte 0 -- -- 99
2021-01-08 19:00:00 8.8 6 Norte 18 Norte 0 -- -- 99
2021-01-08 18:00:00 8.9 5 Norte 18 Noroeste 0 -- -- 99
2021-01-08 17:00:00 9 8 Norte 19 Noroeste 0 -- -- 99
2021-01-08 16:00:00 8.7 8 Norte 27 Nordeste 1.2 -- -- 99
2021-01-08 15:00:00 8.3 12 Norte 36 Nordeste 4.4 -- -- 99
2021-01-08 14:00:00 7.9 20 Nordeste 43 Nordeste 7.6 -- -- 99
2021-01-08 13:00:00 7.8 25 Nordeste 40 Nordeste 3.6 -- -- 99
2021-01-08 12:00:00 7.7 26 Nordeste 39 Nordeste 2.8 -- -- 98
2021-01-08 11:00:00 7.4 27 Nordeste 36 Nordeste 3.2 -- -- 98
2021-01-08 10:00:00 7.3 20 Nordeste 33 Nordeste 2.4 -- -- 98
2021-01-08 09:00:00 7.1 23 Nordeste 41 Nordeste 1.8 -- -- 98
2021-01-08 08:00:00 7.1 21 Nordeste 35 Nordeste 0.6 -- -- 98
2021-01-08 07:00:00 7.1 20 Nordeste 35 Nordeste 0.6 -- -- 98
2021-01-08 06:00:00 6.9 19 Nordeste 40 Nordeste 1.4 -- -- 98
2021-01-08 05:00:00 6.9 17 Nordeste 31 Nordeste 1 -- -- 97
2021-01-08 04:00:00 6.8 19 Nordeste 33 Nordeste 0 -- -- 97
2021-01-08 03:00:00 6.9 19 Nordeste 32 Nordeste 0.2 -- -- 97
2021-01-08 02:00:00 6.9 17 Nordeste 31 Nordeste 0.4 -- -- 97
2021-01-08 01:00:00 7 22 Nordeste 36 Nordeste 1.2 -- -- 97
2021-01-08 00:00:00 7 24 Nordeste 36 Nordeste 0.6 -- -- 97
2021-01-07 23:00:00 7.1 22 Nordeste 35 Nordeste 1 -- -- 97
2021-01-07 22:00:00 7.2 19 Nordeste 31 Nordeste 1.4 -- -- 97
2021-01-07 21:00:00 7.4 17 Nordeste 30 Nordeste 2.4 -- -- 96
2021-01-07 20:00:00 7.5 19 Nordeste 36 Nordeste 2.2 -- -- 96
2021-01-07 19:00:00 7.6 23 Nordeste 36 Nordeste 1.2 -- -- 95
2021-01-07 18:00:00 8.4 22 Nordeste 35 Nordeste 0 -- -- 91
2021-01-07 17:00:00 8.8 22 Nordeste 34 Nordeste 0 -- -- 90
2021-01-07 16:00:00 8.9 19 Nordeste 35 Nordeste 0 -- -- 91
2021-01-07 15:00:00 9 23 Nordeste 35 Nordeste 0 -- -- 91
2021-01-07 14:00:00 8.8 24 Nordeste 38 Nordeste 0 -- -- 95
2021-01-07 13:00:00 8.2 23 Nordeste 37 Nordeste 0 -- -- 96
2021-01-07 12:00:00 7.9 21 Nordeste 32 Nordeste 0 -- -- 97
2021-01-07 11:00:00 7.6 17 Nordeste 27 Nordeste 0.2 -- -- 97
2021-01-07 10:00:00 7.5 15 Nordeste 31 Nordeste 0 -- -- 97
2021-01-07 09:00:00 7.3 22 Nordeste 35 Nordeste 0 -- -- 97
2021-01-07 08:00:00 7.2 22 Nordeste 32 Nordeste 0.4 -- -- 97
2021-01-07 07:00:00 7.3 17 Nordeste 30 Norte 0.6 -- -- 97
2021-01-07 06:00:00 7.3 14 Nordeste 28 Nordeste 0 -- -- 97
2021-01-07 05:00:00 7.5 15 Nordeste 32 Nordeste 0 -- -- 96
2021-01-07 04:00:00 7.4 22 Nordeste 32 Nordeste 0.2 -- -- 97
2021-01-07 03:00:00 7.5 23 Nordeste 39 Nordeste 0.2 -- -- 96
2021-01-07 02:00:00 7.8 24 Nordeste 41 Nordeste 0.4 -- -- 97
2021-01-07 01:00:00 8 24 Nordeste 38 Nordeste 0.6 -- -- 97
2021-01-07 00:00:00 7.9 22 Nordeste 33 Nordeste 1.8 -- -- 97
2021-01-06 23:00:00 8.1 23 Nordeste 35 Nordeste 1.4 -- -- 97
2021-01-06 22:00:00 8.2 21 Nordeste 31 Nordeste 2.4 -- -- 96
2021-01-06 21:00:00 8.1 16 Nordeste 27 Nordeste 2.2 -- -- 95
2021-01-06 20:00:00 8.4 18 Nordeste 28 Nordeste 0.8 -- -- 92
2021-01-06 19:00:00 9 13 Nordeste 21 Nordeste 0 -- -- 85
2021-01-06 18:00:00 10.2 7 Norte 13 Nordeste 0 -- -- 76
2021-01-06 17:00:00 10.9 8 Nordeste 19 Nordeste 0 -- -- 71
2021-01-06 16:00:00 11 15 Nordeste 25 Nordeste 0 -- -- 70
2021-01-06 15:00:00 11.1 16 Nordeste 28 Nordeste 0 -- -- 68
2021-01-06 14:00:00 10.4 17 Nordeste 27 Nordeste 0 -- -- 68
2021-01-06 13:00:00 9.3 13 Nordeste 25 Nordeste 0 -- -- 69
2021-01-06 12:00:00 7 15 Nordeste 23 Nordeste 0 -- -- 75
2021-01-06 11:00:00 5.7 12 Nordeste 20 Nordeste 0 -- -- 79
2021-01-06 10:00:00 4.3 10 Nordeste 17 Nordeste 0 -- -- 85
2021-01-06 09:00:00 2.5 9 Nordeste 14 Nordeste 0 -- -- 89
2021-01-06 08:00:00 2.9 8 Norte 16 Norte 0 -- -- 84
2021-01-06 07:00:00 2.9 6 Norte 13 Nordeste 0 -- -- 81
2021-01-06 06:00:00 2.3 2 Norte 8 Norte 0 -- -- 84
2021-01-06 05:00:00 1.5 2 Norte 11 Nordeste 0 -- -- 87
2021-01-06 04:00:00 2.2 7 Nordeste 13 Norte 0 -- -- 86
2021-01-06 03:00:00 2.6 5 Nordeste 9 Nordeste 0 -- -- 85
2021-01-06 02:00:00 2.7 3 Norte 9 Noroeste 0 -- -- 85
2021-01-06 01:00:00 3.1 3 Norte 10 Norte 0 -- -- 87
2021-01-06 00:00:00 4 4 Norte 16 Nordeste 0 -- -- 88
2021-01-05 23:00:00 4.7 10 Nordeste 17 Nordeste 0 -- -- 88
2021-01-05 22:00:00 6 7 Norte 20 Nordeste 0 -- -- 87
2021-01-05 21:00:00 7.4 9 Nordeste 14 Nordeste 0 -- -- 85
2021-01-05 20:00:00 8.3 9 Nordeste 13 Nordeste 0 -- -- 85
2021-01-05 19:00:00 9 8 Nordeste 15 Nordeste 0 -- -- 82
2021-01-05 18:00:00 10.4 9 Nordeste 19 Nordeste 0 -- -- 79
2021-01-05 17:00:00 11.3 13 Nordeste 19 Nordeste 0 -- -- 73
2021-01-05 16:00:00 11.6 10 Nordeste 17 Nordeste 0 -- -- 72
2021-01-05 15:00:00 11.4 6 Nordeste 17 Nordeste 0 -- -- 75
2021-01-05 14:00:00 10.8 8 Nordeste 17 Nordeste 0 -- -- 77
2021-01-05 13:00:00 10.3 12 Nordeste 19 Este 0 -- -- 80
2021-01-05 12:00:00 8.2 9 Nordeste 18 Nordeste 0 -- -- 89
2021-01-05 11:00:00 6.3 9 Nordeste 18 Nordeste 0.2 -- -- 98
2021-01-05 10:00:00 3.1 9 Nordeste 13 Nordeste 0 -- -- 98
2021-01-05 09:00:00 2.6 10 Nordeste 15 Norte 0 -- -- 98
2021-01-05 08:00:00 2.1 4 Norte 8 Norte 0 -- -- 97
2021-01-05 07:00:00 3.4 5 Norte 9 Nordeste 0 -- -- 96
2021-01-05 06:00:00 2.8 4 Norte 8 Sur 0 -- -- 97
2021-01-05 05:00:00 3.4 2 Sudoeste 7 Norte 0 -- -- 95
2021-01-05 04:00:00 3.3 0 Calma 8 Norte 0 -- -- 95
2021-01-05 03:00:00 4 2 Norte 9 Norte 0 -- -- 95
2021-01-05 02:00:00 5 4 Nordeste 7 Norte 0 -- -- 93
2021-01-05 01:00:00 6 2 Norte 8 Nordeste 0 -- -- 94
2021-01-05 00:00:00 5.5 3 Este 3 Sudeste 0 -- -- 94
2021-01-04 23:00:00 5.5 0 Calma 7 Sur 0 -- -- 91
2021-01-04 22:00:00 7.3 0 Calma 4 Noroeste 0 -- -- 84
2021-01-04 21:00:00 8.6 3 Noroeste 6 Norte 0 -- -- 84
2021-01-04 20:00:00 9.1 3 Sudoeste 8 Sudoeste 0 -- -- 77
2021-01-04 19:00:00 10 4 Sudoeste 11 Sudoeste 0 -- -- 73
2021-01-04 18:00:00 11.7 8 Sudoeste 20 Sudoeste 0 -- -- 68
2021-01-04 17:00:00 13.3 14 Sudoeste 20 Sudoeste 0 -- -- 61
2021-01-04 16:00:00 13.7 9 Oeste 23 Sudoeste 0 -- -- 57
2021-01-04 15:00:00 13.3 15 Sudoeste 21 Sudoeste 0 -- -- 63
2021-01-04 14:00:00 13.2 11 Sudoeste 21 Sudoeste 0 -- -- 57
2021-01-04 13:00:00 12 0 Calma 12 Sudeste 0 -- -- 64
2021-01-04 12:00:00 9 3 Sudeste 8 Este 0 -- -- 77
2021-01-04 11:00:00 4.5 2 Este 6 Norte 0 -- -- 98
2021-01-04 10:00:00 0.3 3 Nordeste 6 Norte 0 -- -- 97
2021-01-04 09:00:00 -1.8 3 Nordeste 4 Nordeste 0 -- -- 95
2021-01-04 08:00:00 -2 2 Nordeste 6 Nordeste 0 -- -- 94
2021-01-04 07:00:00 -1.1 4 Nordeste 7 Nordeste 0 -- -- 95
2021-01-04 06:00:00 -1 0 Calma 6 Noroeste 0 -- -- 93
2021-01-04 05:00:00 0.5 3 Nordeste 9 Nordeste 0 -- -- 93
2021-01-04 04:00:00 0.4 3 Nordeste 10 Nordeste 0 -- -- 90
2021-01-04 03:00:00 1.6 3 Oeste 10 Noroeste 0 -- -- 83
2021-01-04 02:00:00 3.5 4 Noroeste 9 Noroeste 0 -- -- 82
2021-01-04 01:00:00 4.3 6 Noroeste 13 Noroeste 0 -- -- 81
2021-01-04 00:00:00 4.4 8 Noroeste 14 Noroeste 0 -- -- 77
2021-01-03 23:00:00 4.8 9 Noroeste 14 Oeste 0 -- -- 73
2021-01-03 22:00:00 4.9 6 Noroeste 13 Oeste 0 -- -- 72
2021-01-03 21:00:00 6 9 Noroeste 13 Noroeste 0 -- -- 70
2021-01-03 20:00:00 5.3 6 Oeste 10 Oeste 0 -- -- 76
2021-01-03 19:00:00 6.7 7 Sudoeste 13 Oeste 0 -- -- 68
2021-01-03 18:00:00 11 10 Oeste 23 Oeste 0 -- -- 54
2021-01-03 17:00:00 12.7 17 Oeste 24 Oeste 0 -- -- 50
2021-01-03 16:00:00 13 18 Oeste 24 Sudoeste 0 -- -- 53
2021-01-03 15:00:00 12.9 18 Sudoeste 23 Sudoeste 0 -- -- 57
2021-01-03 14:00:00 12.7 4 Sudeste 11 Sudoeste 0 -- -- 53
2021-01-03 13:00:00 9.8 3 Nordeste 11 Nordeste 0 -- -- 64
2021-01-03 12:00:00 8.1 5 Nordeste 12 Nordeste 0 -- -- 75
2021-01-03 11:00:00 4.7 6 Nordeste 9 Este 0 -- -- 96
2021-01-03 10:00:00 0.4 3 Nordeste 10 Nordeste 0 -- -- 97
2021-01-03 09:00:00 -2 8 Nordeste 11 Nordeste 0 -- -- 96
2021-01-03 08:00:00 -1.9 4 Nordeste 10 Noroeste 0 -- -- 93
2021-01-03 07:00:00 -1.1 3 Norte 12 Norte 0 -- -- 92
2021-01-03 06:00:00 -0.6 5 Noroeste 8 Noroeste 0 -- -- 94
2021-01-03 05:00:00 0 4 Nordeste 8 Norte 0 -- -- 89
2021-01-03 04:00:00 1.6 4 Oeste 11 Noroeste 0 -- -- 84
2021-01-03 03:00:00 2.6 8 Noroeste 12 Oeste 0 -- -- 86
2021-01-03 02:00:00 2.9 6 Noroeste 10 Noroeste 0 -- -- 83
2021-01-03 01:00:00 3.4 9 Noroeste 11 Noroeste 0 -- -- 82
2021-01-03 00:00:00 4 8 Noroeste 13 Noroeste 0 -- -- 79
2021-01-02 23:00:00 3.8 5 Noroeste 10 Norte 0 -- -- 79
2021-01-02 22:00:00 4.5 5 Noroeste 13 Noroeste 0 -- -- 77
2021-01-02 21:00:00 5.3 8 Noroeste 14 Noroeste 0 -- -- 74
2021-01-02 20:00:00 6.2 6 Noroeste 12 Noroeste 0 -- -- 70
2021-01-02 19:00:00 8.4 5 Oeste 13 Noroeste 0 -- -- 64
2021-01-02 18:00:00 11.6 6 Oeste 20 Noroeste 0 -- -- 56
2021-01-02 17:00:00 12.8 9 Noroeste 22 Noroeste 0 -- -- 48
2021-01-02 16:00:00 13.4 10 Noroeste 20 Noroeste 0 -- -- 43
2021-01-02 15:00:00 13.5 12 Sudoeste 23 Oeste 0 -- -- 51
2021-01-02 14:00:00 13 9 Sudoeste 18 Sudoeste 0 -- -- 59